NACIONALNO OTVORENO PRVENSTVO HRVATSKE U KARTINGU
1. NAGRADA LIQUI MOLLY '08
Čakovec-Belica, 06.04.2008.

KLASA I - 1. UTRKA
Poz. S.b. Vozač Klub Nac. Krug Vrijeme Zaostatak Bod.
1. 6 Leo Grdić Podravina Koprivnica HR 5 6:22,251 0:00,000 -
2. 2 Muhammad Pličanić AK Info Kart HR 5 6:26,436 0:04,185 -
3. 4 Matija Kovačić KK 1 Zagreb HR 5 6:30,486 0:08,235 -
4. 3 Fran Tisaj KK Koprivnica HR 5 6:31,022 0:08,771 -
 
KLASA II - 1. UTRKA
Poz. S.b. Vozač Klub Nac. Krug Vrijeme Zaostatak Bod.
1. 25 Martin Kodrić KK 1 Zagreb HR 10 9:54,035 0:00,000 20
2. 6 Mislav Mikulec AK Info Kart HR 10 10:06,939 0:12,904 15
3. 3 Juraj Kovačić KK 1 Zagreb HR 10 10:10,317 0:16,282 12
4. 15 Benjamin Žganec KK 1 Zagreb HR 10 10:17,623 0:23,588 10
5. 21 Damian Sekulić KU Novi Marof HR 10 10:42,036 0:48,001 8
6. 7 Petra Lesički Podravina Koprivnica HR 10 10:46,051 0:52,016 6
7. 2 Moni Petrović AK Speedy HR 10 10:48,026 0:53,991 4
8. 8 Ivica Šimunić AMK Stubaki HR 9 10:28,488 1 krug 3
9. 12 Dino Paleka KK Koprivnica HR 9 9:52,053 1 krug 2
 
KLASA II - 2. UTRKA
Poz. S.b. Vozač Klub Nac. Krug Vrijeme Zaostatak Bod.
1. 25 Martin Kodrić KK 1 Zagreb HR 10 9:56,536 0:00,000 20
2. 6 Mislav Mikulec AK Info Kart HR 10 10:13,783 0:17,247 15
3. 3 Juraj Kovačić KK 1 Zagreb HR 10 10:15,371 0:18,835 12
4. 15 Benjamin Žganec KK 1 Zagreb HR 10 10:18,583 0:22,047 10
5. 21 Damian Sekulić KU Novi Marof HR 10 10:19,008 0:22,472 8
6. 2 Moni Petrović AK Speedy HR 10 10:23,672 0:27,136 6
7. 7 Petra Lesički Podravina Koprivnica HR 10 10:38,632 0:42,096 4
8. 12 Dino Paleka KK Koprivnica HR 10 10:50,811 0:54,275 3
9. 8 Ivica Šimunić AMK Stubaki HR 9 10:46,500 1 krug 2
 
KLASA V - 1. UTRKA
Poz. S.b. Vozač Klub Nac. Krug Vrijeme Zaostatak Bod.
1. 26 Matija Jurkovič AKK Sportsteam SLO 13 11:00,876 0:00,000 20
2. 22 Nikola Belohradski Klakson HR 13 11:00,897 0:00,021 15
3. 121 Urban Lan AKK Sportstil SLO 13 11:03,647 0:02,771 12
4. 405 Borna Vlašić Podravina Koprivnica HR 13 11:04,151 0:03,275 10
5. 424 Sanjin Trope AK Quickly HR 13 11:04,601 0:03,725 8
6. 7 Tomislav Pavlić KK 1 Zagreb HR 13 11:15,366 0:14,490 6
7. 46 Martin Mihič AKK Sportstil SLO 13 11:17,529 0:16,653 4
8. 25 Antun Bošnjak KK Koprivnica HR 13 11:19,827 0:18,951 3
 
KLASA V - 2. UTRKA
Poz. S.b. Vozač Klub Nac. Krug Vrijeme Zaostatak Bod.
1. 121 Urban Lan AKK Sportstil SLO 14 11:57,943 0:00,000 20
2. 26 Matija Jurkovič AKK Sportsteam SLO 14 11:58,300 0:00,357 15
3. 46 Martin Mihič AKK Sportstil SLO 14 12:01,923 0:03,980 12
4. 405 Borna Vlašić Podravina Koprivnica HR 14 12:02,316 0:04,373 10
5. 424 Sanjin Trope AK Quickly HR 14 12:02,347 0:04,404 8
6. 7 Tomislav Pavlić KK 1 Zagreb HR 14 12:02,572 0:04,629 6
7. 25 Antun Bošnjak KK Koprivnica HR 14 12:07,679 0:09,736 4
8. 22 Nikola Belohradski Klakson HR 14 12:38,279 0:40,336 3
 
KLASA VII - 1. UTRKA
Poz. S.b. Vozač Klub Nac. Krug Vrijeme Zaostatak Bod.
1. 2 Damir Nakić KK 1 Zagreb HR 10 8:23,738 0:00,000 20
2. 1 Ratko Medenec KK 1 Zagreb HR 10 8:26,096 0:02,358 15
3. 3 Miljenko Antolić KK 1 Zagreb HR 10 8:42,002 0:18,264 12
4. 6 Zlatko Banić SAK Split HR 10 8:47,159 0:23,421 10
5. 5 Tomislav Lovrenc AMK Cobra HR 8 9:19,164 2 kruga 8
 
KLASA VII - 2. UTRKA
Poz. S.b. Vozač Klub Nac. Krug Vrijeme Zaostatak Bod.
1. 2 Damir Nakić KK 1 Zagreb HR 10 8:24,975 0:00,000 20
2. 1 Ratko Medenec KK 1 Zagreb HR 10 8:28,556 0:03,581 15
3. 3 Miljenko Antolić KK 1 Zagreb HR 10 8:39,938 0:14,963 12
4. 6 Zlatko Banić SAK Split HR 10 8:43,341 0:18,366 10
5. 5 Tomislav Lovrenc AMK Cobra HR 9 8:56,591 1 krug 8
 
KLASA VIII - 1. UTRKA
Poz. S.b. Vozač Klub Nac. Krug Vrijeme Zaostatak Bod.
1. 6 Kristijan Habulin KK 1 Zagreb HR 14 11:34,786 0:00,000 20
2. 74 Renco Majdak KK 1 Zagreb HR 14 11:37,687 0:02,901 15
3. 4 Karlo Golub KK 1 Zagreb HR 14 11:38,383 0:03,597 12
4. 13 Matija Momčilović Podravina Koprivnica HR 14 11:39,428 0:04,642 10
5. 1 Sven Gorup AMD Zanatlija HR 14 11:40,243 0:05,457 8
6. 2 Tomislav Srbljinović KK 1 Zagreb HR 14 11:47,536 0:12,750 6
7. 617 Hinko Pavlec KU Novi Marof HR 14 11:52,358 0:17,572 4
8. 7 Miroslav Šajnić KK 1 Zagreb HR 10 12:27,379 4 kruga 3
 
KLASA VIII - 2. UTRKA
* - VOZAČ JE KAŽNJEN ODUZIMANJEM 10 BODOVA
Poz. S.b. Vozač Klub Nac. Krug Vrijeme Zaostatak Bod.
1. 6 Kristijan Habulin KK 1 Zagreb HR 14 11:44,403 0:00,000 10*
2. 74 Renco Majdak KK 1 Zagreb HR 14 11:47,660 0:03,257 15
3. 1 Sven Gorup AMD Zanatlija HR 14 11:51,967 0:07,564 12
4. 617 Hinko Pavlec KU Novi Marof HR 14 11:55,655 0:11,252 10
5. 2 Tomislav Srbljinović KK 1 Zagreb HR 14 12:17,791 0:33,388 8
6. 7 Miroslav Šajnić KK 1 Zagreb HR 10 8:31,048 4 kruga 6
- 13 Matija Momčilović Podravina Koprivnica HR 14 - isključen -
- 4 Karlo Golub KK 1 Zagreb HR 4 - odustao -
 
KLASA IX - 1. UTRKA
Poz. S.b. Vozač Klub Nac. Krug Vrijeme Zaostatak Bod.
1. 3 Samir Smailagić AK Info Kart HR 14 12:59,333 0:00,000 20
2. 5 Hrvoje Tisaj KK Koprivnica HR 14 13:08,193 0:08,860 15
3. 9 Davor Šipek AK Siget HR 14 13:10,757 0:11,424 12
4. 1 Vladimir Vukobrat AK Info Kart HR 14 13:20,200 0:20,867 10
5. 2 Marko Marović AK Siget HR 14 13:24,160 0:24,827 8
6. 7 Ninoslav Banić KK 1 Zagreb HR 14 13:32,337 0:33,004 6
7. 13 Tomislav Kelbl KK Koprivnica HR 14 13:38,510 0:39,177 4
8. 18 Nino Kovačić KK 1 Zagreb HR 14 13:42,240 0:42,907 3
9. 4 Tihomir Špek KK 1 Zagreb HR 14 13:43,753 0:44,420 2
10. 22 Miljenko Šimunić AMK Stubaki HR 13 13:27,545 1 krug 1
 
KLASA IX - 2. UTRKA
Poz. S.b. Vozač Klub Nac. Krug Vrijeme Zaostatak Bod.
1. 3 Samir Smailagić AK Info Kart HR 14 12:54,302 0:00,000 20
2. 5 Hrvoje Tisaj KK Koprivnica HR 14 12:56,687 0:02,385 15
3. 1 Vladimir Vukobrat AK Info Kart HR 14 13:02,888 0:08,586 12
4. 9 Davor Šipek AK Siget HR 14 13:08,029 0:13,727 10
5. 2 Marko Marović AK Siget HR 14 13:18,230 0:23,928 8
6. 18 Nino Kovačić KK 1 Zagreb HR 14 13:26,022 0:31,720 6
7. 13 Tomislav Kelbl KK Koprivnica HR 14 13:28,489 0:34,187 4
8. 7 Ninoslav Banić KK 1 Zagreb HR 14 13:32,931 0:38,629 3
9. 4 Tihomir Špek KK 1 Zagreb HR 14 13:40,535 0:46,233 2
10. 22 Miljenko Šimunić AMK Stubaki HR 13 13:22,688 1 krug 1
 
PRVENSTVO HRVATSKE